Sea Dog — WDB7914 — position and weather

sailwx.info

Track history (hours):
 
Tides and Currents Weather Stations Pressure Air Temp Water Temp Dewpoint Dewpoint Depression Visibility Wind Speed Wind Dir Waves Ship Positions

Sea Dog

Owner: Sea Dog Commercial Fishing Inc., manahawkin, NJ. More information available from US FCC via Universal Licensing System and Coast Guard Vessel Documentation Center.

Last reported at 2017-Sep-15 22:49 UTC. Time now 2017-Oct-20 06:43 UTC.
Position N 39°45' W 074°07'.
Warning: this ship's position is 34 days out of date.

Length 25 m.

Type: Fishing. MMSI: 366949730.

Date/timePositionNaut miles runAvg speedWind from/ knotsBaromVisibWave heightAir tempDewpointWater temp
2017-Sep-15 22:49N 39°45' W 074°07'1 3.6
2017-Sep-15 22:29N 39°46' W 074°06'0 0.0
2017-Sep-15 05:01N 39°46' W 074°06'1 0.0
2017-Sep-14 00:38N 39°45' W 074°07'0 0.1
2017-Sep-14 00:10N 39°45' W 074°07'1 3.8
2017-Sep-13 23:59N 39°46' W 074°07'56 5.2
2017-Sep-13 13:19N 40°02' W 072°57'5 4.4
2017-Sep-13 12:06N 40°01' W 073°04'1 5.1
2017-Sep-13 11:58N 40°01' W 073°05'5 4.4
2017-Sep-13 10:54N 40°00' W 073°11'10 6.6
2017-Sep-13 09:22N 39°57' W 073°24'3 8.6
2017-Sep-13 09:00N 39°56' W 073°28'6 8.6
2017-Sep-13 08:17N 39°54' W 073°35'3 8.8
2017-Sep-13 07:56N 39°53' W 073°39'4 8.9
2017-Sep-13 07:30N 39°51' W 073°43'5 8.8
2017-Sep-13 06:59N 39°50' W 073°49'4 8.8
2017-Sep-13 06:30N 39°49' W 073°54'4 8.8
2017-Sep-13 06:00N 39°47' W 073°60'4 8.8
2017-Sep-13 05:30N 39°46' W 074°05'2 3.0
2017-Sep-13 05:00N 39°45' W 074°07'0 0.0
2017-Sep-11 22:50N 39°45' W 074°07'0 0.0
2017-Sep-11 22:22N 39°45' W 074°07'1 0.1
2017-Sep-11 05:22N 39°46' W 074°05'1 0.0
2017-Sep-09 21:53N 39°45' W 074°07'5 0.3
2017-Sep-09 05:59N 39°47' W 074°01'4 8.2
2017-Sep-09 05:30N 39°46' W 074°06'1 0.0
2017-Sep-07 23:11N 39°45' W 074°07'4 0.2
2017-Sep-07 05:31N 39°46' W 074°02'2 7.5
2017-Sep-07 05:15N 39°46' W 074°05'2 7.3
2017-Sep-07 05:00N 39°45' W 074°07'0 0.8
2017-Sep-07 04:29N 39°45' W 074°07'0 0.0
2017-Sep-07 03:53N 39°45' W 074°07'0 0.0
2017-Sep-07 03:29N 39°45' W 074°07'0 0.0
2017-Sep-07 02:59N 39°45' W 074°07'0 0.0
2017-Sep-07 02:26N 39°45' W 074°07'0 0.0
2017-Sep-07 01:44N 39°45' W 074°07'0 0.0
2017-Sep-07 01:29N 39°45' W 074°07'0 0.0
2017-Sep-07 00:41N 39°45' W 074°07'0 0.0
2017-Sep-07 00:29N 39°45' W 074°07'0 0.0
2017-Sep-06 23:59N 39°45' W 074°07'0 0.0
2017-Sep-06 23:29N 39°45' W 074°07'0 0.0
2017-Sep-06 22:59N 39°45' W 074°07'0 0.0
2017-Sep-06 22:20N 39°45' W 074°07'0 0.0
2017-Sep-06 21:44N 39°45' W 074°07'0 0.0
2017-Sep-06 21:20N 39°45' W 074°07'0 0.0
2017-Sep-06 20:59N 39°45' W 074°07'0 0.0
2017-Sep-06 20:29N 39°45' W 074°07'0 0.0
2017-Sep-06 19:59N 39°45' W 074°07'0 0.0
2017-Sep-06 18:50N 39°45' W 074°07'0 0.0
2017-Sep-06 17:56N 39°45' W 074°07'0 0.0
2017-Sep-06 17:26N 39°45' W 074°07'0 0.0
2017-Sep-06 15:38N 39°45' W 074°07'0 0.0
2017-Sep-06 15:26N 39°45' W 074°07'0 0.0
2017-Sep-06 14:50N 39°45' W 074°07'0 0.0
2017-Sep-06 14:26N 39°45' W 074°07'0 0.0
2017-Sep-06 13:50N 39°45' W 074°07'0 0.0
2017-Sep-06 13:20N 39°45' W 074°07'0 0.0
2017-Sep-06 12:56N 39°45' W 074°07'0 0.0
2017-Sep-06 12:20N 39°45' W 074°07'0 0.0
2017-Sep-06 11:32N 39°45' W 074°07'0 0.0
2017-Sep-06 11:26N 39°45' W 074°07'0 0.0
2017-Sep-06 10:50N 39°45' W 074°07'0 0.0
2017-Sep-06 10:20N 39°45' W 074°07'0 0.0
2017-Sep-06 09:56N 39°45' W 074°07'0 0.0
2017-Sep-06 09:20N 39°45' W 074°07'0 0.0
2017-Sep-06 08:56N 39°45' W 074°07'0 0.0
2017-Sep-06 08:26N 39°45' W 074°07'0 0.0
2017-Sep-06 07:56N 39°45' W 074°07'0 0.0
2017-Sep-06 07:20N 39°45' W 074°07'0 0.0
2017-Sep-06 06:56N 39°45' W 074°07'0 0.0
2017-Sep-06 06:26N 39°45' W 074°07'0 0.0
2017-Sep-06 05:56N 39°45' W 074°07'0 0.0
2017-Sep-06 05:26N 39°45' W 074°07'0 0.0
2017-Sep-06 04:50N 39°45' W 074°07'0 0.0
2017-Sep-06 04:20N 39°45' W 074°07'0 0.0
2017-Sep-06 03:50N 39°45' W 074°07'0 0.0
2017-Sep-06 03:20N 39°45' W 074°07'0 0.0
2017-Sep-06 02:44N 39°45' W 074°07'0 0.0
2017-Sep-06 02:14N 39°45' W 074°07'0 0.0
2017-Sep-06 01:56N 39°45' W 074°07'0 0.0
2017-Sep-06 00:29N 39°45' W 074°07'  
Track history (hours):
 
Tides and Currents Weather Stations Pressure Air Temp Water Temp Dewpoint Dewpoint Depression Visibility Wind Speed Wind Dir Waves Ship Positions

Sea Dog

Owner: Sea Dog Commercial Fishing Inc., manahawkin, NJ. More information available from US FCC via Universal Licensing System and Coast Guard Vessel Documentation Center.

Last reported at 2017-Sep-15 22:49 UTC. Time now 2017-Oct-20 06:43 UTC.
Position N 39°45' W 074°07'.
Warning: this ship's position is 34 days out of date.

Length 25 m.

Type: Fishing. MMSI: 366949730.

Date/timePositionNaut miles runAvg speedWind from/ knotsBaromVisibWave heightAir tempDewpointWater temp
2017-Sep-15 22:49N 39°45' W 074°07'1 3.6
2017-Sep-15 22:29N 39°46' W 074°06'0 0.0
2017-Sep-15 05:01N 39°46' W 074°06'1 0.0
2017-Sep-14 00:38N 39°45' W 074°07'0 0.1
2017-Sep-14 00:10N 39°45' W 074°07'1 3.8
2017-Sep-13 23:59N 39°46' W 074°07'56 5.2
2017-Sep-13 13:19N 40°02' W 072°57'5 4.4
2017-Sep-13 12:06N 40°01' W 073°04'1 5.1
2017-Sep-13 11:58N 40°01' W 073°05'5 4.4
2017-Sep-13 10:54N 40°00' W 073°11'10 6.6
2017-Sep-13 09:22N 39°57' W 073°24'3 8.6
2017-Sep-13 09:00N 39°56' W 073°28'6 8.6
2017-Sep-13 08:17N 39°54' W 073°35'3 8.8
2017-Sep-13 07:56N 39°53' W 073°39'4 8.9
2017-Sep-13 07:30N 39°51' W 073°43'5 8.8
2017-Sep-13 06:59N 39°50' W 073°49'4 8.8
2017-Sep-13 06:30N 39°49' W 073°54'4 8.8
2017-Sep-13 06:00N 39°47' W 073°60'4 8.8
2017-Sep-13 05:30N 39°46' W 074°05'2 3.0
2017-Sep-13 05:00N 39°45' W 074°07'0 0.0
2017-Sep-11 22:50N 39°45' W 074°07'0 0.0
2017-Sep-11 22:22N 39°45' W 074°07'1 0.1
2017-Sep-11 05:22N 39°46' W 074°05'1 0.0
2017-Sep-09 21:53N 39°45' W 074°07'5 0.3
2017-Sep-09 05:59N 39°47' W 074°01'4 8.2
2017-Sep-09 05:30N 39°46' W 074°06'1 0.0
2017-Sep-07 23:11N 39°45' W 074°07'4 0.2
2017-Sep-07 05:31N 39°46' W 074°02'2 7.5
2017-Sep-07 05:15N 39°46' W 074°05'2 7.3
2017-Sep-07 05:00N 39°45' W 074°07'0 0.8
2017-Sep-07 04:29N 39°45' W 074°07'0 0.0
2017-Sep-07 03:53N 39°45' W 074°07'0 0.0
2017-Sep-07 03:29N 39°45' W 074°07'0 0.0
2017-Sep-07 02:59N 39°45' W 074°07'0 0.0
2017-Sep-07 02:26N 39°45' W 074°07'0 0.0
2017-Sep-07 01:44N 39°45' W 074°07'0 0.0
2017-Sep-07 01:29N 39°45' W 074°07'0 0.0
2017-Sep-07 00:41N 39°45' W 074°07'0 0.0
2017-Sep-07 00:29N 39°45' W 074°07'0 0.0
2017-Sep-06 23:59N 39°45' W 074°07'0 0.0
2017-Sep-06 23:29N 39°45' W 074°07'0 0.0
2017-Sep-06 22:59N 39°45' W 074°07'0 0.0
2017-Sep-06 22:20N 39°45' W 074°07'0 0.0
2017-Sep-06 21:44N 39°45' W 074°07'0 0.0
2017-Sep-06 21:20N 39°45' W 074°07'0 0.0
2017-Sep-06 20:59N 39°45' W 074°07'0 0.0
2017-Sep-06 20:29N 39°45' W 074°07'0 0.0
2017-Sep-06 19:59N 39°45' W 074°07'0 0.0
2017-Sep-06 18:50N 39°45' W 074°07'0 0.0
2017-Sep-06 17:56N 39°45' W 074°07'0 0.0
2017-Sep-06 17:26N 39°45' W 074°07'0 0.0
2017-Sep-06 15:38N 39°45' W 074°07'0 0.0
2017-Sep-06 15:26N 39°45' W 074°07'0 0.0
2017-Sep-06 14:50N 39°45' W 074°07'0 0.0
2017-Sep-06 14:26N 39°45' W 074°07'0 0.0
2017-Sep-06 13:50N 39°45' W 074°07'0 0.0
2017-Sep-06 13:20N 39°45' W 074°07'0 0.0
2017-Sep-06 12:56N 39°45' W 074°07'0 0.0
2017-Sep-06 12:20N 39°45' W 074°07'0 0.0
2017-Sep-06 11:32N 39°45' W 074°07'0 0.0
2017-Sep-06 11:26N 39°45' W 074°07'0 0.0
2017-Sep-06 10:50N 39°45' W 074°07'0 0.0
2017-Sep-06 10:20N 39°45' W 074°07'0 0.0
2017-Sep-06 09:56N 39°45' W 074°07'0 0.0
2017-Sep-06 09:20N 39°45' W 074°07'0 0.0
2017-Sep-06 08:56N 39°45' W 074°07'0 0.0
2017-Sep-06 08:26N 39°45' W 074°07'0 0.0
2017-Sep-06 07:56N 39°45' W 074°07'0 0.0
2017-Sep-06 07:20N 39°45' W 074°07'0 0.0
2017-Sep-06 06:56N 39°45' W 074°07'0 0.0
2017-Sep-06 06:26N 39°45' W 074°07'0 0.0
2017-Sep-06 05:56N 39°45' W 074°07'0 0.0
2017-Sep-06 05:26N 39°45' W 074°07'0 0.0
2017-Sep-06 04:50N 39°45' W 074°07'0 0.0
2017-Sep-06 04:20N 39°45' W 074°07'0 0.0
2017-Sep-06 03:50N 39°45' W 074°07'0 0.0
2017-Sep-06 03:20N 39°45' W 074°07'0 0.0
2017-Sep-06 02:44N 39°45' W 074°07'0 0.0
2017-Sep-06 02:14N 39°45' W 074°07'0 0.0
2017-Sep-06 01:56N 39°45' W 074°07'0 0.0
2017-Sep-06 00:29N 39°45' W 074°07'  

Dump ship's entire track history